Montrose, Arkansas
Current Conditions -  °F | °C
As of 5:05 AM on Thursday 18 Dec 2014 (Local Time) from KLLQ Reporting Station
Light Rain Light Rain  
Wind Chill: 40°   Ceiling: 500
Heat Index: 40°   Visibility: 4mi
Dew Point: 38°   Wind: 3mph
Humidity: 93%   Direction: NA
Pressure: 30.2"   Gusts: NA
Location:  33.3°N, 91.49°W
Report Text: KLLQ 181105Z AUTO VRB03KT 4SM -RA BR OVC005 04/03 A3020 RMK AO2 CIG 003V008 P0001 T00440033
Loading
Personal Weather Stations






























Interactive Weather Map New forecast layout! Learn more

10-Day Weather Forecast

Advertisements
Track Severe Weather on mobile